77TE weather

CLOSED Rowco, Inc Heliport
San Antonio, Texas, United States

Public forecast

Using degrees Fahrenheit for public forecast. Weather courtesy of forecast.io.

METAR (pilot weather report)

Closest report is San Antonio International Airport, 3.2 nm (5.9 km) WSW. Retrieved 2019/09/24 06:51 UTC (47 minutes ago):

KSAT 240651Z 16007KT 10SM FEW020 26/22 A2998 RMK AO2 SLP134 T02610222

TAF (pilot weather forecast)

Closest forecast is San Antonio International Airport, 3.2 nm (5.9 km) WSW. Retrieved 2019/09/24 06:24 UTC (1 hour ago):

TAF KSAT 240523Z 2406/2512 15010KT P6SM FEW060 FM240700 15005KT P6SM SCT009 BKN015 TEMPO 2410/2412 BKN009 FM241600 14010KT P6SM SCT060 FM250800 15005KT P6SM BKN015